sensor_id;sensor_type;location;lat;lon;timestamp;pressure;altitude;pressure_sealevel;temperature;humidity
65760;BME280;52496;51.082;5.066;2023-03-02T00:03:08;102245.19;;;0.51;78.06
65760;BME280;52496;51.082;5.066;2023-03-02T00:05:40;102239.13;;;0.49;78.20
65760;BME280;52496;51.082;5.066;2023-03-02T00:08:11;102239.31;;;0.45;78.16
65760;BME280;52496;51.082;5.066;2023-03-02T00:10:43;102236.00;;;0.42;78.27
65760;BME280;52496;51.082;5.066;2023-03-02T00:13:13;102241.53;;;0.37;78.37
65760;BME280;52496;51.082;5.066;2023-03-02T00:15:44;102244.22;;;0.36;78.96
65760;BME280;52496;51.082;5.066;2023-03-02T00:18:15;102246.00;;;0.35;79.33
65760;BME280;52496;51.082;5.066;2023-03-02T00:20:45;102247.03;;;0.33;79.06
65760;BME280;52496;51.082;5.066;2023-03-02T00:23:15;102246.97;;;0.34;79.21
65760;BME280;52496;51.082;5.066;2023-03-02T00:25:46;102242.44;;;0.36;79.40
65760;BME280;52496;51.082;5.066;2023-03-02T00:28:17;102239.63;;;0.39;79.08
65760;BME280;52496;51.082;5.066;2023-03-02T00:30:47;102239.63;;;0.39;79.54
65760;BME280;52496;51.082;5.066;2023-03-02T00:33:17;102234.38;;;0.39;79.19
65760;BME280;52496;51.082;5.066;2023-03-02T00:35:49;102247.53;;;0.39;79.21
65760;BME280;52496;51.082;5.066;2023-03-02T00:38:19;102246.53;;;0.42;79.40
65760;BME280;52496;51.082;5.066;2023-03-02T00:40:49;102244.72;;;0.42;79.68
65760;BME280;52496;51.082;5.066;2023-03-02T00:43:20;102240.41;;;0.41;79.55
65760;BME280;52496;51.082;5.066;2023-03-02T00:45:56;102241.44;;;0.39;79.53
65760;BME280;52496;51.082;5.066;2023-03-02T00:48:28;102252.06;;;0.37;79.53
65760;BME280;52496;51.082;5.066;2023-03-02T00:50:59;102238.13;;;0.35;80.02
65760;BME280;52496;51.082;5.066;2023-03-02T00:53:30;102250.34;;;0.36;80.03
65760;BME280;52496;51.082;5.066;2023-03-02T00:56:01;102243.56;;;0.32;80.02
65760;BME280;52496;51.082;5.066;2023-03-02T00:58:32;102242.88;;;0.29;80.17
65760;BME280;52496;51.082;5.066;2023-03-02T01:01:08;102238.44;;;0.29;80.50
65760;BME280;52496;51.082;5.066;2023-03-02T01:03:39;102245.41;;;0.30;80.82
65760;BME280;52496;51.082;5.066;2023-03-02T01:06:15;102242.03;;;0.28;80.55
65760;BME280;52496;51.082;5.066;2023-03-02T01:08:46;102229.09;;;0.23;80.35
65760;BME280;52496;51.082;5.066;2023-03-02T01:11:20;102224.84;;;0.21;80.92
65760;BME280;52496;51.082;5.066;2023-03-02T01:13:51;102218.91;;;0.17;80.96
65760;BME280;52496;51.082;5.066;2023-03-02T01:16:21;102217.22;;;0.16;81.36
65760;BME280;52496;51.082;5.066;2023-03-02T01:18:52;102224.34;;;0.14;81.42
65760;BME280;52496;51.082;5.066;2023-03-02T01:21:22;102224.34;;;0.14;82.14
65760;BME280;52496;51.082;5.066;2023-03-02T01:23:53;102217.47;;;0.12;81.59
65760;BME280;52496;51.082;5.066;2023-03-02T01:26:23;102218.41;;;0.11;81.84
65760;BME280;52496;51.082;5.066;2023-03-02T01:28:54;102212.47;;;0.07;81.85
65760;BME280;52496;51.082;5.066;2023-03-02T01:31:25;102209.16;;;0.04;81.93
65760;BME280;52496;51.082;5.066;2023-03-02T01:33:56;102198.81;;;0.01;82.10
65760;BME280;52496;51.082;5.066;2023-03-02T01:36:27;102205.13;;;-0.04;82.22
65760;BME280;52496;51.082;5.066;2023-03-02T01:38:57;102198.19;;;-0.05;82.47
65760;BME280;52496;51.082;5.066;2023-03-02T01:41:27;102203.44;;;-0.05;82.81
65760;BME280;52496;51.082;5.066;2023-03-02T01:43:58;102200.03;;;-0.07;82.84
65760;BME280;52496;51.082;5.066;2023-03-02T01:46:29;102196.66;;;-0.09;83.26
65760;BME280;52496;51.082;5.066;2023-03-02T01:49:06;102187.84;;;-0.08;83.04
65760;BME280;52496;51.082;5.066;2023-03-02T01:51:44;102189.63;;;-0.08;83.22
65760;BME280;52496;51.082;5.066;2023-03-02T01:54:18;102188.69;;;-0.07;83.02
65760;BME280;52496;51.082;5.066;2023-03-02T01:56:55;102185.09;;;-0.06;83.07
65760;BME280;52496;51.082;5.066;2023-03-02T01:59:29;102182.56;;;-0.08;83.63
65760;BME280;52496;51.082;5.066;2023-03-02T02:02:03;102183.53;;;-0.09;83.38
65760;BME280;52496;51.082;5.066;2023-03-02T02:04:35;102184.59;;;-0.13;83.75
65760;BME280;52496;51.082;5.066;2023-03-02T02:07:08;102183.91;;;-0.16;83.99
65760;BME280;52496;51.082;5.066;2023-03-02T02:09:42;102180.59;;;-0.20;84.11
65760;BME280;52496;51.082;5.066;2023-03-02T02:12:16;102171.19;;;-0.24;84.10
65760;BME280;52496;51.082;5.066;2023-03-02T02:14:47;102178.31;;;-0.26;84.37
65760;BME280;52496;51.082;5.066;2023-03-02T02:17:18;102170.66;;;-0.31;84.46
65760;BME280;52496;51.082;5.066;2023-03-02T02:20:02;102170.91;;;-0.35;84.96
65760;BME280;52496;51.082;5.066;2023-03-02T02:25:50;102164.34;;;-0.44;85.95
65760;BME280;52496;51.082;5.066;2023-03-02T02:28:27;102163.66;;;-0.48;85.73
65760;BME280;52496;51.082;5.066;2023-03-02T02:31:43;102161.97;;;-0.49;86.24
65760;BME280;52496;51.082;5.066;2023-03-02T02:37:21;102150.91;;;-0.55;86.30
65760;BME280;52496;51.082;5.066;2023-03-02T02:39:53;102150.16;;;-0.57;86.64
65760;BME280;52496;51.082;5.066;2023-03-02T02:42:28;102153.63;;;-0.57;86.91
65760;BME280;52496;51.082;5.066;2023-03-02T02:45:07;102148.38;;;-0.57;86.77
65760;BME280;52496;51.082;5.066;2023-03-02T02:47:47;102150.84;;;-0.54;86.81
65760;BME280;52496;51.082;5.066;2023-03-02T02:50:23;102142.97;;;-0.54;86.79
65760;BME280;52496;51.082;5.066;2023-03-02T02:53:08;102146.53;;;-0.55;87.08
65760;BME280;52496;51.082;5.066;2023-03-02T02:55:41;102151.00;;;-0.57;86.94
65760;BME280;52496;51.082;5.066;2023-03-02T02:58:33;102148.38;;;-0.57;87.08
65760;BME280;52496;51.082;5.066;2023-03-02T03:01:05;102151.06;;;-0.58;87.22
65760;BME280;52496;51.082;5.066;2023-03-02T03:03:37;102152.09;;;-0.61;87.32
65760;BME280;52496;51.082;5.066;2023-03-02T03:06:16;102146.06;;;-0.63;87.50
65760;BME280;52496;51.082;5.066;2023-03-02T03:08:50;102146.13;;;-0.64;87.47
65760;BME280;52496;51.082;5.066;2023-03-02T03:11:24;102145.28;;;-0.65;87.95
65760;BME280;52496;51.082;5.066;2023-03-02T03:16:30;102142.03;;;-0.70;87.98
65760;BME280;52496;51.082;5.066;2023-03-02T03:19:23;102143.84;;;-0.71;88.05
65760;BME280;52496;51.082;5.066;2023-03-02T03:21:56;102148.34;;;-0.73;88.32
65760;BME280;52496;51.082;5.066;2023-03-02T03:24:29;102143.94;;;-0.72;88.32
65760;BME280;52496;51.082;5.066;2023-03-02T03:27:01;102140.34;;;-0.71;88.46
65760;BME280;52496;51.082;5.066;2023-03-02T03:29:36;102135.09;;;-0.71;88.33
65760;BME280;52496;51.082;5.066;2023-03-02T03:32:07;102130.78;;;-0.72;88.45
65760;BME280;52496;51.082;5.066;2023-03-02T03:34:37;102134.16;;;-0.70;88.72
65760;BME280;52496;51.082;5.066;2023-03-02T03:37:12;102128.75;;;-0.67;88.45
65760;BME280;52496;51.082;5.066;2023-03-02T03:39:43;102126.13;;;-0.67;88.58
65760;BME280;52496;51.082;5.066;2023-03-02T03:42:14;102125.22;;;-0.66;88.61
65760;BME280;52496;51.082;5.066;2023-03-02T03:44:45;102135.63;;;-0.64;88.76
65760;BME280;52496;51.082;5.066;2023-03-02T03:47:16;102127.69;;;-0.63;88.55
65760;BME280;52496;51.082;5.066;2023-03-02T03:49:46;102138.19;;;-0.63;88.34
65760;BME280;52496;51.082;5.066;2023-03-02T03:52:17;102125.13;;;-0.64;88.62
65760;BME280;52496;51.082;5.066;2023-03-02T03:54:47;102127.75;;;-0.64;88.37
65760;BME280;52496;51.082;5.066;2023-03-02T03:57:17;102121.75;;;-0.66;88.18
65760;BME280;52496;51.082;5.066;2023-03-02T03:59:48;102125.13;;;-0.64;88.86
65760;BME280;52496;51.082;5.066;2023-03-02T04:02:19;102132.16;;;-0.65;88.30
65760;BME280;52496;51.082;5.066;2023-03-02T04:04:50;102126.91;;;-0.65;88.42
65760;BME280;52496;51.082;5.066;2023-03-02T04:07:20;102133.09;;;-0.66;88.48
65760;BME280;52496;51.082;5.066;2023-03-02T04:09:51;102136.50;;;-0.64;88.74
65760;BME280;52496;51.082;5.066;2023-03-02T04:12:34;102140.88;;;-0.64;88.63
65760;BME280;52496;51.082;5.066;2023-03-02T04:15:07;102145.28;;;-0.65;88.65
65760;BME280;52496;51.082;5.066;2023-03-02T04:17:38;102143.59;;;-0.66;88.69
65760;BME280;52496;51.082;5.066;2023-03-02T04:20:10;102150.56;;;-0.65;88.23
65760;BME280;52496;51.082;5.066;2023-03-02T04:22:47;102149.03;;;-0.69;88.40
65760;BME280;52496;51.082;5.066;2023-03-02T04:25:20;102143.84;;;-0.71;88.46
65760;BME280;52496;51.082;5.066;2023-03-02T04:27:52;102147.31;;;-0.70;88.85
65760;BME280;52496;51.082;5.066;2023-03-02T04:30:25;102142.22;;;-0.73;89.26
65760;BME280;52496;51.082;5.066;2023-03-02T04:32:55;102141.38;;;-0.74;88.71
65760;BME280;52496;51.082;5.066;2023-03-02T04:35:26;102145.78;;;-0.74;88.94
65760;BME280;52496;51.082;5.066;2023-03-02T04:37:57;102144.16;;;-0.77;88.61
65760;BME280;52496;51.082;5.066;2023-03-02T04:40:28;102145.16;;;-0.79;88.93
65760;BME280;52496;51.082;5.066;2023-03-02T04:42:58;102153.03;;;-0.79;88.75
65760;BME280;52496;51.082;5.066;2023-03-02T04:45:29;102151.28;;;-0.79;89.04
65760;BME280;52496;51.082;5.066;2023-03-02T04:48:03;102157.38;;;-0.78;88.90
65760;BME280;52496;51.082;5.066;2023-03-02T04:50:33;102151.34;;;-0.80;88.76
65760;BME280;52496;51.082;5.066;2023-03-02T04:53:04;102146.09;;;-0.80;89.45
65760;BME280;52496;51.082;5.066;2023-03-02T04:55:34;102151.34;;;-0.80;89.08
65760;BME280;52496;51.082;5.066;2023-03-02T04:58:05;102154.81;;;-0.80;89.18
65760;BME280;52496;51.082;5.066;2023-03-02T05:00:36;102145.25;;;-0.81;89.06
65760;BME280;52496;51.082;5.066;2023-03-02T05:03:07;102150.50;;;-0.81;88.89
65760;BME280;52496;51.082;5.066;2023-03-02T05:05:37;102157.59;;;-0.83;89.18
65760;BME280;52496;51.082;5.066;2023-03-02T05:08:08;102152.50;;;-0.86;88.96
65760;BME280;52496;51.082;5.066;2023-03-02T05:10:38;102155.22;;;-0.87;89.57
65760;BME280;52496;51.082;5.066;2023-03-02T05:13:09;102149.13;;;-0.88;89.72
65760;BME280;52496;51.082;5.066;2023-03-02T05:15:40;102151.97;;;-0.93;89.35
65760;BME280;52496;51.082;5.066;2023-03-02T05:18:12;102153.66;;;-0.92;89.70
65760;BME280;52496;51.082;5.066;2023-03-02T05:20:42;102152.81;;;-0.92;89.84
65760;BME280;52496;51.082;5.066;2023-03-02T05:23:14;102158.16;;;-0.94;89.36
65760;BME280;52496;51.082;5.066;2023-03-02T05:25:54;102160.00;;;-0.96;89.62
65760;BME280;52496;51.082;5.066;2023-03-02T05:28:26;102162.00;;;-1.01;89.68
65760;BME280;52496;51.082;5.066;2023-03-02T05:30:57;102164.78;;;-1.04;90.03
65760;BME280;52496;51.082;5.066;2023-03-02T05:33:28;102162.31;;;-1.07;90.38
65760;BME280;52496;51.082;5.066;2023-03-02T05:35:59;102162.41;;;-1.08;90.02
65760;BME280;52496;51.082;5.066;2023-03-02T05:38:30;102164.25;;;-1.10;90.46
65760;BME280;52496;51.082;5.066;2023-03-02T05:41:01;102165.25;;;-1.13;90.63
65760;BME280;52496;51.082;5.066;2023-03-02T05:43:32;102166.13;;;-1.12;90.99
65760;BME280;52496;51.082;5.066;2023-03-02T05:46:02;102162.63;;;-1.13;90.86
65760;BME280;52496;51.082;5.066;2023-03-02T05:48:33;102161.06;;;-1.17;91.94
65760;BME280;52496;51.082;5.066;2023-03-02T05:51:04;102159.28;;;-1.17;91.15
65760;BME280;52496;51.082;5.066;2023-03-02T05:53:35;102168.16;;;-1.19;91.07
65760;BME280;52496;51.082;5.066;2023-03-02T05:56:05;102166.63;;;-1.23;91.68
65760;BME280;52496;51.082;5.066;2023-03-02T05:58:36;102163.22;;;-1.25;91.80
65760;BME280;52496;51.082;5.066;2023-03-02T06:01:08;102165.84;;;-1.25;92.16
65760;BME280;52496;51.082;5.066;2023-03-02T06:03:40;102167.63;;;-1.26;92.17
65760;BME280;52496;51.082;5.066;2023-03-02T06:06:11;102161.63;;;-1.28;92.33
65760;BME280;52496;51.082;5.066;2023-03-02T06:08:43;102168.63;;;-1.28;92.46
65760;BME280;52496;51.082;5.066;2023-03-02T06:11:13;102167.72;;;-1.27;92.47
65760;BME280;52496;51.082;5.066;2023-03-02T06:13:44;102162.47;;;-1.27;92.63
65760;BME280;52496;51.082;5.066;2023-03-02T06:16:14;102171.03;;;-1.24;92.68
65760;BME280;52496;51.082;5.066;2023-03-02T06:18:45;102174.50;;;-1.23;92.54
65760;BME280;52496;51.082;5.066;2023-03-02T06:21:15;102170.19;;;-1.24;92.93
65760;BME280;52496;51.082;5.066;2023-03-02T06:23:47;102168.41;;;-1.24;92.66
65760;BME280;52496;51.082;5.066;2023-03-02T06:26:17;102172.72;;;-1.23;92.75
65760;BME280;52496;51.082;5.066;2023-03-02T06:28:48;102172.72;;;-1.23;92.56
65760;BME280;52496;51.082;5.066;2023-03-02T06:31:19;102178.75;;;-1.21;92.97
65760;BME280;52496;51.082;5.066;2023-03-02T06:33:49;102167.41;;;-1.21;92.72
65760;BME280;52496;51.082;5.066;2023-03-02T06:36:20;102169.09;;;-1.20;92.80
65760;BME280;52496;51.082;5.066;2023-03-02T06:38:50;102169.88;;;-1.18;93.10
65760;BME280;52496;51.082;5.066;2023-03-02T06:41:21;102162.75;;;-1.16;93.00
65760;BME280;52496;51.082;5.066;2023-03-02T06:43:52;102167.13;;;-1.15;92.96
65760;BME280;52496;51.082;5.066;2023-03-02T06:46:22;102163.56;;;-1.14;92.66
65760;BME280;52496;51.082;5.066;2023-03-02T06:48:53;102158.31;;;-1.14;93.08
65760;BME280;52496;51.082;5.066;2023-03-02T06:51:23;102160.00;;;-1.13;93.30
65760;BME280;52496;51.082;5.066;2023-03-02T06:53:53;102154.59;;;-1.10;93.26
65760;BME280;52496;51.082;5.066;2023-03-02T06:56:24;102161.41;;;-1.06;92.68
65760;BME280;52496;51.082;5.066;2023-03-02T06:58:55;102159.38;;;-1.01;92.76
65760;BME280;52496;51.082;5.066;2023-03-02T07:01:25;102160.78;;;-0.94;92.59
65760;BME280;52496;51.082;5.066;2023-03-02T07:03:56;102161.31;;;-0.87;92.13
65760;BME280;52496;51.082;5.066;2023-03-02T07:06:26;102172.34;;;-0.80;91.81
65760;BME280;52496;51.082;5.066;2023-03-02T07:08:57;102172.03;;;-0.74;91.72
65760;BME280;52496;51.082;5.066;2023-03-02T07:11:27;102173.56;;;-0.70;91.44
65760;BME280;52496;51.082;5.066;2023-03-02T07:14:01;102161.06;;;-0.65;91.09
65760;BME280;52496;51.082;5.066;2023-03-02T07:16:32;102171.25;;;-0.59;90.85
65760;BME280;52496;51.082;5.066;2023-03-02T07:19:04;102170.03;;;-0.52;90.41
65760;BME280;52496;51.082;5.066;2023-03-02T07:21:34;102170.44;;;-0.43;89.83
65760;BME280;52496;51.082;5.066;2023-03-02T07:24:05;102175.38;;;-0.37;89.65
65760;BME280;52496;51.082;5.066;2023-03-02T07:26:36;102181.09;;;-0.29;89.69
65760;BME280;52496;51.082;5.066;2023-03-02T07:29:06;102186.97;;;-0.24;89.13
65760;BME280;52496;51.082;5.066;2023-03-02T07:31:37;102180.50;;;-0.18;88.75
65760;BME280;52496;51.082;5.066;2023-03-02T07:34:07;102185.44;;;-0.12;88.56
65760;BME280;52496;51.082;5.066;2023-03-02T07:36:37;102176.38;;;-0.07;88.49
65760;BME280;52496;51.082;5.066;2023-03-02T07:39:08;102183.94;;;-0.01;88.29
65760;BME280;52496;51.082;5.066;2023-03-02T07:41:38;102188.84;;;0.06;87.89
65760;BME280;52496;51.082;5.066;2023-03-02T07:44:09;102183.25;;;0.12;87.72
65760;BME280;52496;51.082;5.066;2023-03-02T07:46:40;102188.19;;;0.18;87.75
65760;BME280;52496;51.082;5.066;2023-03-02T07:49:10;102189.56;;;0.25;87.54
65760;BME280;52496;51.082;5.066;2023-03-02T07:51:41;102194.41;;;0.33;87.08
65760;BME280;52496;51.082;5.066;2023-03-02T07:54:11;102188.72;;;0.40;86.77
65760;BME280;52496;51.082;5.066;2023-03-02T07:56:42;102194.56;;;0.45;86.80
65760;BME280;52496;51.082;5.066;2023-03-02T07:59:13;102189.66;;;0.55;86.65
65760;BME280;52496;51.082;5.066;2023-03-02T08:01:43;102195.31;;;0.63;86.74
65760;BME280;52496;51.082;5.066;2023-03-02T08:04:14;102187.75;;;0.73;86.59
65760;BME280;52496;51.082;5.066;2023-03-02T08:06:44;102185.53;;;0.81;85.85
65760;BME280;52496;51.082;5.066;2023-03-02T08:09:15;102185.94;;;0.89;85.96
65760;BME280;52496;51.082;5.066;2023-03-02T08:11:46;102190.66;;;0.99;84.96
65760;BME280;52496;51.082;5.066;2023-03-02T08:14:17;102185.88;;;1.05;84.44
65760;BME280;52496;51.082;5.066;2023-03-02T08:16:47;102189.00;;;1.12;84.57
65760;BME280;52496;51.082;5.066;2023-03-02T08:19:18;102184.13;;;1.20;83.76
65760;BME280;52496;51.082;5.066;2023-03-02T08:21:48;102184.72;;;1.25;83.75
65760;BME280;52496;51.082;5.066;2023-03-02T08:24:19;102190.38;;;1.33;83.87
65760;BME280;52496;51.082;5.066;2023-03-02T08:26:49;102191.53;;;1.44;83.66
65760;BME280;52496;51.082;5.066;2023-03-02T08:29:20;102194.47;;;1.53;82.84
65760;BME280;52496;51.082;5.066;2023-03-02T08:31:51;102200.97;;;1.62;82.30
65760;BME280;52496;51.082;5.066;2023-03-02T08:34:21;102202.28;;;1.69;81.97
65760;BME280;52496;51.082;5.066;2023-03-02T08:36:52;102188.53;;;1.78;82.02
65760;BME280;52496;51.082;5.066;2023-03-02T08:39:22;102196.47;;;1.93;82.03
65760;BME280;52496;51.082;5.066;2023-03-02T08:41:53;102197.19;;;2.09;80.86
65760;BME280;52496;51.082;5.066;2023-03-02T08:44:23;102197.44;;;2.19;80.80
65760;BME280;52496;51.082;5.066;2023-03-02T08:46:54;102197.81;;;2.27;80.39
65760;BME280;52496;51.082;5.066;2023-03-02T08:49:24;102197.16;;;2.38;79.58
65760;BME280;52496;51.082;5.066;2023-03-02T08:51:57;102193.16;;;2.45;78.64
65760;BME280;52496;51.082;5.066;2023-03-02T08:54:28;102184.09;;;2.49;77.83
65760;BME280;52496;51.082;5.066;2023-03-02T08:56:59;102183.50;;;2.58;77.76
65760;BME280;52496;51.082;5.066;2023-03-02T08:59:29;102186.22;;;2.71;77.39
65760;BME280;52496;51.082;5.066;2023-03-02T09:02:00;102175.97;;;2.79;76.25
65760;BME280;52496;51.082;5.066;2023-03-02T09:04:30;102177.47;;;2.83;76.76
65760;BME280;52496;51.082;5.066;2023-03-02T09:07:01;102168.94;;;2.92;76.28
65760;BME280;52496;51.082;5.066;2023-03-02T09:09:31;102172.53;;;3.04;74.79
65760;BME280;52496;51.082;5.066;2023-03-02T09:12:02;102167.28;;;3.17;75.35
65760;BME280;52496;51.082;5.066;2023-03-02T09:14:33;102168.78;;;3.34;74.73
65760;BME280;52496;51.082;5.066;2023-03-02T09:17:03;102163.69;;;3.43;72.87
65760;BME280;52496;51.082;5.066;2023-03-02T09:19:34;102162.97;;;3.54;73.43
65760;BME280;52496;51.082;5.066;2023-03-02T09:22:11;102167.19;;;3.70;72.36
65760;BME280;52496;51.082;5.066;2023-03-02T09:24:42;102161.78;;;3.84;71.69
65760;BME280;52496;51.082;5.066;2023-03-02T09:27:12;102162.81;;;3.94;71.09
65760;BME280;52496;51.082;5.066;2023-03-02T09:29:43;102160.25;;;4.05;70.72
65760;BME280;52496;51.082;5.066;2023-03-02T09:32:13;102151.66;;;4.14;70.79
65760;BME280;52496;51.082;5.066;2023-03-02T09:34:45;102153.03;;;4.20;68.20
65760;BME280;52496;51.082;5.066;2023-03-02T09:37:15;102153.66;;;4.24;69.17
65760;BME280;52496;51.082;5.066;2023-03-02T09:39:46;102154.44;;;4.37;69.08
65760;BME280;52496;51.082;5.066;2023-03-02T09:55:56;102155.72;;;5.15;66.13
65760;BME280;52496;51.082;5.066;2023-03-02T09:58:35;102162.00;;;5.25;65.44
65760;BME280;52496;51.082;5.066;2023-03-02T10:01:16;102142.63;;;5.36;65.41
65760;BME280;52496;51.082;5.066;2023-03-02T10:03:58;102146.63;;;5.52;64.92
65760;BME280;52496;51.082;5.066;2023-03-02T10:06:31;102144.44;;;5.69;65.52
65760;BME280;52496;51.082;5.066;2023-03-02T10:09:01;102147.84;;;5.82;63.19
65760;BME280;52496;51.082;5.066;2023-03-02T10:11:38;102149.53;;;5.94;62.17
65760;BME280;52496;51.082;5.066;2023-03-02T10:14:38;102148.91;;;6.02;63.48
65760;BME280;52496;51.082;5.066;2023-03-02T10:19:58;102148.31;;;6.21;62.29
65760;BME280;52496;51.082;5.066;2023-03-02T10:22:35;102145.50;;;6.34;61.70
65760;BME280;52496;51.082;5.066;2023-03-02T10:28:04;102142.06;;;6.75;60.79
65760;BME280;52496;51.082;5.066;2023-03-02T10:30:38;102133.06;;;6.87;61.30
65760;BME280;52496;51.082;5.066;2023-03-02T10:33:14;102147.94;;;7.11;60.96
65760;BME280;52496;51.082;5.066;2023-03-02T10:35:49;102136.16;;;7.25;60.15
65760;BME280;52496;51.082;5.066;2023-03-02T10:38:23;102140.78;;;7.32;58.75
65760;BME280;52496;51.082;5.066;2023-03-02T10:40:59;102131.84;;;7.33;59.46
65760;BME280;52496;51.082;5.066;2023-03-02T10:43:35;102129.81;;;7.47;59.41
65760;BME280;52496;51.082;5.066;2023-03-02T10:46:09;102123.44;;;7.59;58.62
65760;BME280;52496;51.082;5.066;2023-03-02T10:48:54;102117.31;;;7.68;57.16
65760;BME280;52496;51.082;5.066;2023-03-02T10:51:30;102120.72;;;7.80;56.52
65760;BME280;52496;51.082;5.066;2023-03-02T10:56:32;102123.00;;;7.94;57.39
65760;BME280;52496;51.082;5.066;2023-03-02T11:02:01;102125.56;;;8.15;55.27
65760;BME280;52496;51.082;5.066;2023-03-02T11:04:32;102122.06;;;8.24;54.99
65760;BME280;52496;51.082;5.066;2023-03-02T11:07:12;102118.06;;;8.40;56.51
65760;BME280;52496;51.082;5.066;2023-03-02T11:10:57;102123.13;;;8.53;54.29
65760;BME280;52496;51.082;5.066;2023-03-02T11:12:57;102126.50;;;8.55;52.87
65760;BME280;52496;51.082;5.066;2023-03-02T11:18:18;102123.41;;;8.59;53.18
65760;BME280;52496;51.082;5.066;2023-03-02T11:21:02;102117.25;;;8.68;52.94
65760;BME280;52496;51.082;5.066;2023-03-02T11:26:51;102114.41;;;8.89;52.68
65760;BME280;52496;51.082;5.066;2023-03-02T11:29:32;102118.34;;;8.95;52.90
65760;BME280;52496;51.082;5.066;2023-03-02T11:32:14;102116.91;;;9.01;51.72
65760;BME280;52496;51.082;5.066;2023-03-02T11:34:50;102116.34;;;9.07;52.99
65760;BME280;52496;51.082;5.066;2023-03-02T11:42:55;102113.72;;;9.44;51.74
65760;BME280;52496;51.082;5.066;2023-03-02T11:45:29;102110.88;;;9.55;51.43
65760;BME280;52496;51.082;5.066;2023-03-02T11:50:49;102107.41;;;9.73;50.26
65760;BME280;52496;51.082;5.066;2023-03-02T11:53:30;102113.84;;;9.80;50.56
65760;BME280;52496;51.082;5.066;2023-03-02T11:56:03;102112.38;;;9.95;49.53
65760;BME280;52496;51.082;5.066;2023-03-02T11:58:35;102117.13;;;10.01;49.25
65760;BME280;52496;51.082;5.066;2023-03-02T12:01:12;102114.53;;;10.09;49.56
65760;BME280;52496;51.082;5.066;2023-03-02T12:03:45;102110.00;;;10.20;49.44
65760;BME280;52496;51.082;5.066;2023-03-02T12:12:26;102108.56;;;10.43;48.16
65760;BME280;52496;51.082;5.066;2023-03-02T12:15:01;102096.72;;;10.64;47.89
65760;BME280;52496;51.082;5.066;2023-03-02T12:17:32;102095.97;;;10.71;48.17
65760;BME280;52496;51.082;5.066;2023-03-02T12:20:09;102103.38;;;10.77;47.63
65760;BME280;52496;51.082;5.066;2023-03-02T12:22:47;102095.25;;;10.87;47.25
65760;BME280;52496;51.082;5.066;2023-03-02T12:27:51;102086.22;;;10.88;47.78
65760;BME280;52496;51.082;5.066;2023-03-02T12:30:25;102087.84;;;11.07;47.62
65760;BME280;52496;51.082;5.066;2023-03-02T12:33:15;102079.56;;;11.18;46.13
65760;BME280;52496;51.082;5.066;2023-03-02T12:35:48;102087.75;;;11.17;46.28
65760;BME280;52496;51.082;5.066;2023-03-02T12:38:28;102069.84;;;11.17;46.44
65760;BME280;52496;51.082;5.066;2023-03-02T12:43:43;102075.69;;;11.47;45.56
65760;BME280;52496;51.082;5.066;2023-03-02T12:46:33;102076.88;;;11.53;45.09
65760;BME280;52496;51.082;5.066;2023-03-02T12:51:53;102066.09;;;11.36;45.92
65760;BME280;52496;51.082;5.066;2023-03-02T12:54:32;102063.47;;;11.44;46.22
65760;BME280;52496;51.082;5.066;2023-03-02T12:59:37;102058.03;;;11.70;44.91
65760;BME280;52496;51.082;5.066;2023-03-02T13:02:22;102051.59;;;11.89;45.92
65760;BME280;52496;51.082;5.066;2023-03-02T13:05:06;102056.31;;;12.04;44.51
65760;BME280;52496;51.082;5.066;2023-03-02T13:07:59;102053.31;;;12.07;44.50
65760;BME280;52496;51.082;5.066;2023-03-02T13:11:01;102050.34;;;12.18;45.02
65760;BME280;52496;51.082;5.066;2023-03-02T13:16:04;102037.94;;;12.33;44.41
65760;BME280;52496;51.082;5.066;2023-03-02T13:18:36;102044.47;;;12.47;44.10
65760;BME280;52496;51.082;5.066;2023-03-02T13:21:10;102041.13;;;12.53;43.94
65760;BME280;52496;51.082;5.066;2023-03-02T13:23:48;102037.28;;;12.48;42.98
65760;BME280;52496;51.082;5.066;2023-03-02T13:31:35;102026.53;;;12.64;44.45
65760;BME280;52496;51.082;5.066;2023-03-02T13:34:21;102021.50;;;12.69;43.51
65760;BME280;52496;51.082;5.066;2023-03-02T13:36:53;102031.22;;;12.70;43.17
65760;BME280;52496;51.082;5.066;2023-03-02T13:39:28;102028.53;;;12.70;44.14
65760;BME280;52496;51.082;5.066;2023-03-02T13:42:01;102026.34;;;12.74;43.29
65760;BME280;52496;51.082;5.066;2023-03-02T13:44:33;102024.84;;;12.71;43.77
65760;BME280;52496;51.082;5.066;2023-03-02T13:47:21;102022.84;;;12.73;43.00
65760;BME280;52496;51.082;5.066;2023-03-02T13:49:52;102027.72;;;12.70;43.42
65760;BME280;52496;51.082;5.066;2023-03-02T13:52:28;102022.00;;;12.73;43.05
65760;BME280;52496;51.082;5.066;2023-03-02T13:54:59;102024.84;;;12.88;42.71
65760;BME280;52496;51.082;5.066;2023-03-02T13:57:30;102024.16;;;12.94;43.44
65760;BME280;52496;51.082;5.066;2023-03-02T14:00:03;102022.31;;;12.86;42.67
65760;BME280;52496;51.082;5.066;2023-03-02T14:02:35;102016.59;;;12.89;44.14
65760;BME280;52496;51.082;5.066;2023-03-02T14:05:05;102015.22;;;12.93;43.43
65760;BME280;52496;51.082;5.066;2023-03-02T14:07:36;102013.72;;;12.99;43.04
65760;BME280;52496;51.082;5.066;2023-03-02T14:10:07;102025.47;;;12.98;42.55
65760;BME280;52496;51.082;5.066;2023-03-02T14:12:38;102011.56;;;12.86;42.57
65760;BME280;52496;51.082;5.066;2023-03-02T14:15:13;102002.84;;;12.84;43.54
65760;BME280;52496;51.082;5.066;2023-03-02T14:17:45;102003.00;;;12.91;43.03
65760;BME280;52496;51.082;5.066;2023-03-02T14:20:18;101997.28;;;12.94;43.73
65760;BME280;52496;51.082;5.066;2023-03-02T14:22:49;102005.66;;;12.99;42.86
65760;BME280;52496;51.082;5.066;2023-03-02T14:25:20;101996.47;;;12.85;43.33
65760;BME280;52496;51.082;5.066;2023-03-02T14:27:51;101998.47;;;12.83;43.22
65760;BME280;52496;51.082;5.066;2023-03-02T14:30:21;101996.28;;;12.86;43.12
65760;BME280;52496;51.082;5.066;2023-03-02T14:32:52;101991.41;;;12.90;43.03
65760;BME280;52496;51.082;5.066;2023-03-02T14:35:23;101994.63;;;12.85;43.59
65760;BME280;52496;51.082;5.066;2023-03-02T14:37:54;101991.25;;;12.92;43.61
65760;BME280;52496;51.082;5.066;2023-03-02T14:40:26;101992.63;;;12.88;43.14